Norton, Minnesota
Current Conditions -  °F | °C
As of 5:54 AM on Thursday 25 Dec 2014 (Local Time) from KONA Reporting Station
Overcast Overcast  
Wind Chill: 27°   Ceiling: 1400
Heat Index: 32°   Visibility: 10mi
Dew Point: 28°   Wind: 5mph
Humidity: 87%   Direction: 220°SW
Pressure: 29.72"   Gusts: NA
Location:  44.1503°N, 91.9879°W
Report Text: KONA 251154Z AUTO 22004KT 10SM OVC014 00/M02 A2972 RMK AO2
Loading
Personal Weather Stations






























Interactive Weather Map New forecast layout! Learn more

10-Day Weather Forecast

Advertisements
Track Severe Weather on mobile